Catawba Heights, North Carolina
Current Conditions -  °F | °C
As of 9:52 AM on Wednesday 22 Oct 2014 (Local Time) from KCLT Reporting Station
Clear Clear  
Wind Chill: 55°   Ceiling: Unl
Heat Index: 55°   Visibility: 10mi
Dew Point: 36°   Wind: 9mph
Humidity: 49%   Direction: 340°NNW
Pressure: 30.09"   Gusts: 21mph
Location:  35.2342°N, 81.041°W
Report Text: KCLT 221352Z 34008G18KT 10SM CLR 13/02 A3009 RMK AO2 SLP186 T01280022
Loading
Personal Weather Stations






























Interactive Weather Map
Tropical Storm Tracking
New forecast layout! Learn more

10-Day Weather Forecast

Advertisements
Track Severe Weather on mobile